createdAt,value
2023-04-16T00:01:41.141Z,13.08
2023-04-16T00:04:09.123Z,11.93
2023-04-16T00:06:36.973Z,11.87
2023-04-16T00:09:04.758Z,11.77
2023-04-16T00:11:32.456Z,11.69
2023-04-16T00:14:00.331Z,11.73
2023-04-16T00:16:29.544Z,11.79
2023-04-16T00:18:57.276Z,11.81
2023-04-16T00:21:25.020Z,11.79
2023-04-16T00:23:52.774Z,11.75
2023-04-16T00:26:20.581Z,11.58
2023-04-16T00:28:48.313Z,11.43
2023-04-16T00:31:16.035Z,11.48
2023-04-16T00:33:45.235Z,11.52
2023-04-16T00:36:12.977Z,11.58
2023-04-16T00:38:40.713Z,11.62
2023-04-16T00:41:08.414Z,11.71
2023-04-16T00:43:36.091Z,11.68
2023-04-16T00:46:06.787Z,11.53
2023-04-16T00:48:34.939Z,11.35
2023-04-16T00:51:06.510Z,11.50
2023-04-16T00:53:35.548Z,11.50
2023-04-16T00:56:04.175Z,11.51
2023-04-16T00:58:32.514Z,11.52
2023-04-16T01:01:01.171Z,11.38
2023-04-16T01:03:38.328Z,11.37
2023-04-16T01:06:08.332Z,11.49
2023-04-16T01:08:36.456Z,11.47
2023-04-16T01:11:04.841Z,11.45
2023-04-16T01:13:32.654Z,11.51
2023-04-16T01:16:00.695Z,11.50
2023-04-16T01:18:28.464Z,11.50
2023-04-16T01:20:57.602Z,11.45
2023-04-16T01:23:25.478Z,11.50
2023-04-16T01:25:53.422Z,11.27
2023-04-16T01:28:21.435Z,11.26
2023-04-16T01:30:49.152Z,11.34
2023-04-16T01:33:18.144Z,11.31
2023-04-16T01:35:46.042Z,11.42
2023-04-16T01:38:15.163Z,11.36
2023-04-16T01:40:42.913Z,11.40
2023-04-16T01:43:10.634Z,11.39
2023-04-16T01:45:38.460Z,11.27
2023-04-16T01:48:06.578Z,11.43
2023-04-16T01:50:34.645Z,11.50
2023-04-16T01:53:04.951Z,11.52
2023-04-16T01:55:34.945Z,11.40
2023-04-16T01:58:02.624Z,11.39
2023-04-16T02:00:30.522Z,11.30
2023-04-16T02:02:58.437Z,11.12
2023-04-16T02:05:26.193Z,11.14
2023-04-16T02:07:53.910Z,11.08
2023-04-16T02:10:22.158Z,11.19
2023-04-16T02:12:51.264Z,11.08
2023-04-16T02:15:19.116Z,11.19
2023-04-16T02:17:48.624Z,11.13
2023-04-16T02:20:17.700Z,10.93
2023-04-16T02:22:45.549Z,11.13
2023-04-16T02:25:14.259Z,11.24
2023-04-16T02:27:42.008Z,11.36
2023-04-16T02:30:12.407Z,11.24
2023-04-16T02:32:40.311Z,11.26
2023-04-16T02:35:08.754Z,11.24
2023-04-16T02:37:36.442Z,11.27
2023-04-16T02:40:04.160Z,11.20
2023-04-16T02:42:31.849Z,11.30
2023-04-16T02:44:59.530Z,11.29
2023-04-16T02:47:28.656Z,11.26
2023-04-16T02:49:56.415Z,11.37
2023-04-16T02:52:24.165Z,11.43
2023-04-16T02:54:51.824Z,11.38
2023-04-16T02:57:19.557Z,11.34
2023-04-16T02:59:47.285Z,11.28
2023-04-16T03:02:15.056Z,11.26
2023-04-16T03:04:44.333Z,11.26
2023-04-16T03:07:13.008Z,11.16
2023-04-16T03:09:40.794Z,11.28
2023-04-16T03:12:08.551Z,11.29
2023-04-16T03:14:36.248Z,11.26
2023-04-16T03:17:03.973Z,11.19
2023-04-16T03:19:31.743Z,11.08
2023-04-16T03:22:00.805Z,10.90
2023-04-16T03:24:29.450Z,10.94
2023-04-16T03:26:58.864Z,10.97
2023-04-16T03:29:27.079Z,10.90
2023-04-16T03:31:54.767Z,10.90
2023-04-16T03:34:22.405Z,10.83
2023-04-16T03:36:50.071Z,10.84
2023-04-16T03:39:19.170Z,10.71
2023-04-16T03:41:46.945Z,10.67
2023-04-16T03:44:14.681Z,10.62
2023-04-16T03:46:42.447Z,10.63
2023-04-16T03:49:10.371Z,10.58
2023-04-16T03:51:38.220Z,10.30
2023-04-16T03:54:05.940Z,10.32
2023-04-16T03:56:35.148Z,10.53
2023-04-16T03:59:02.857Z,10.48
2023-04-16T04:01:30.597Z,10.49
2023-04-16T04:03:58.493Z,10.36
2023-04-16T04:06:26.435Z,10.28
2023-04-16T04:08:54.302Z,10.23
2023-04-16T04:11:22.269Z,10.40
2023-04-16T04:13:51.268Z,10.34
2023-04-16T04:16:19.024Z,10.21
2023-04-16T04:18:46.919Z,10.13
2023-04-16T04:21:14.660Z,10.03
2023-04-16T04:23:43.626Z,10.05
2023-04-16T04:26:11.346Z,9.99
2023-04-16T04:28:39.099Z,10.03
2023-04-16T04:31:08.220Z,9.96
2023-04-16T04:33:36.076Z,9.81
2023-04-16T04:36:03.813Z,9.75
2023-04-16T04:38:31.770Z,9.69
2023-04-16T04:41:00.346Z,9.76
2023-04-16T04:43:28.075Z,9.67
2023-04-16T04:45:55.990Z,9.63
2023-04-16T04:48:26.779Z,9.91
2023-04-16T04:50:54.760Z,9.98
2023-04-16T04:53:22.470Z,10.11
2023-04-16T04:55:53.194Z,10.20
2023-04-16T04:58:23.266Z,10.16
2023-04-16T05:00:51.071Z,10.06
2023-04-16T05:03:22.233Z,10.03
2023-04-16T05:05:51.332Z,9.98
2023-04-16T05:08:19.073Z,10.05
2023-04-16T05:10:47.026Z,10.12
2023-04-16T05:13:14.989Z,9.95
2023-04-16T05:15:42.736Z,9.97
2023-04-16T05:18:10.445Z,9.91
2023-04-16T05:20:38.824Z,9.94
2023-04-16T05:23:07.908Z,9.99
2023-04-16T05:25:35.826Z,10.04
2023-04-16T05:28:03.512Z,10.09
2023-04-16T05:30:31.272Z,10.13
2023-04-16T05:32:59.067Z,10.25
2023-04-16T05:35:27.746Z,10.31
2023-04-16T05:37:55.501Z,10.27
2023-04-16T05:40:24.608Z,10.19
2023-04-16T05:42:52.295Z,10.24
2023-04-16T05:45:20.127Z,10.25
2023-04-16T05:47:47.951Z,10.27
2023-04-16T05:50:16.005Z,10.22
2023-04-16T05:52:44.047Z,10.32
2023-04-16T05:55:11.789Z,9.89
2023-04-16T05:57:40.844Z,10.07
2023-04-16T06:00:09.430Z,10.09
2023-04-16T06:02:37.426Z,10.04
2023-04-16T06:05:05.988Z,10.07
2023-04-16T06:07:33.737Z,10.34
2023-04-16T06:10:01.477Z,10.47
2023-04-16T06:12:29.291Z,10.67
2023-04-16T06:14:58.443Z,10.83
2023-04-16T06:17:27.148Z,11.07
2023-04-16T06:19:54.966Z,11.20
2023-04-16T06:22:22.794Z,11.06
2023-04-16T06:24:50.608Z,11.28
2023-04-16T06:27:18.307Z,11.42
2023-04-16T06:29:46.156Z,11.52
2023-04-16T06:32:17.217Z,11.51
2023-04-16T06:34:44.958Z,11.56
2023-04-16T06:37:12.678Z,11.61
2023-04-16T06:39:40.740Z,11.68
2023-04-16T06:42:08.595Z,11.75
2023-04-16T06:44:36.920Z,11.96
2023-04-16T06:47:04.716Z,12.19
2023-04-16T06:49:33.879Z,12.20
2023-04-16T06:52:02.824Z,12.30
2023-04-16T06:54:32.328Z,12.34
2023-04-16T06:57:00.087Z,12.52
2023-04-16T06:59:27.746Z,12.65
2023-04-16T07:01:55.527Z,12.68
2023-04-16T07:04:24.148Z,12.80
2023-04-16T07:06:53.219Z,12.94
2023-04-16T07:09:20.945Z,13.18
2023-04-16T07:11:48.651Z,13.43
2023-04-16T07:14:16.417Z,13.68
2023-04-16T07:16:44.199Z,13.89
2023-04-16T07:19:12.455Z,13.89
2023-04-16T07:21:41.941Z,14.02
2023-04-16T07:24:11.184Z,13.84
2023-04-16T07:26:38.994Z,13.97
2023-04-16T07:29:06.787Z,13.92
2023-04-16T07:31:34.592Z,13.85
2023-04-16T07:34:02.370Z,13.67
2023-04-16T07:36:30.148Z,13.76
2023-04-16T07:38:57.976Z,14.04
2023-04-16T07:41:27.252Z,14.13
2023-04-16T07:43:54.925Z,14.42
2023-04-16T07:46:24.727Z,14.30
2023-04-16T07:48:52.758Z,14.21
2023-04-16T07:51:20.508Z,14.62
2023-04-16T07:53:48.180Z,14.80
2023-04-16T07:56:15.999Z,14.88
2023-04-16T07:58:44.987Z,15.05
2023-04-16T08:01:12.822Z,14.65
2023-04-16T08:03:40.899Z,14.38
2023-04-16T08:06:08.814Z,14.89
2023-04-16T08:08:36.538Z,14.90
2023-04-16T08:11:04.359Z,14.64
2023-04-16T08:13:33.560Z,14.96
2023-04-16T08:16:02.892Z,15.09
2023-04-16T08:18:30.724Z,15.12
2023-04-16T08:20:58.507Z,15.69
2023-04-16T08:23:26.263Z,15.93
2023-04-16T08:25:53.927Z,15.50
2023-04-16T08:28:21.610Z,15.76
2023-04-16T08:30:49.301Z,15.53
2023-04-16T08:33:18.417Z,15.81
2023-04-16T08:35:46.200Z,15.16
2023-04-16T08:38:13.941Z,15.09
2023-04-16T08:40:43.038Z,15.57
2023-04-16T08:43:12.392Z,15.35
2023-04-16T08:45:41.925Z,16.18
2023-04-16T08:48:12.441Z,16.32
2023-04-16T08:50:42.223Z,15.87
2023-04-16T08:53:17.354Z,16.20
2023-04-16T08:55:49.068Z,15.83
2023-04-16T08:58:20.766Z,15.95
2023-04-16T09:00:49.597Z,16.32
2023-04-16T09:03:19.825Z,16.65
2023-04-16T09:05:50.524Z,16.54
2023-04-16T09:08:18.679Z,16.91
2023-04-16T09:10:47.313Z,17.16
2023-04-16T09:13:16.947Z,17.42
2023-04-16T09:15:45.374Z,17.21
2023-04-16T09:18:13.146Z,17.18
2023-04-16T09:20:41.044Z,17.53
2023-04-16T09:23:10.336Z,17.67
2023-04-16T09:25:38.640Z,16.82
2023-04-16T09:28:06.610Z,17.64
2023-04-16T09:30:34.881Z,17.61
2023-04-16T09:33:22.500Z,17.42
2023-04-16T09:35:52.701Z,17.42
2023-04-16T09:38:22.043Z,17.78
2023-04-16T09:41:06.535Z,17.85
2023-04-16T09:43:34.245Z,18.01
2023-04-16T09:46:03.774Z,18.47
2023-04-16T09:48:36.015Z,17.75
2023-04-16T09:51:06.784Z,18.09
2023-04-16T09:53:36.363Z,18.70
2023-04-16T09:56:07.340Z,19.19
2023-04-16T09:58:37.551Z,19.12
2023-04-16T10:01:08.505Z,18.87
2023-04-16T10:03:38.243Z,18.61
2023-04-16T10:06:10.314Z,18.89
2023-04-16T10:08:44.530Z,18.90
2023-04-16T10:11:12.435Z,18.66
2023-04-16T10:13:40.150Z,19.05
2023-04-16T10:16:08.941Z,19.52
2023-04-16T10:18:38.169Z,19.39
2023-04-16T10:21:06.694Z,19.41
2023-04-16T10:23:35.052Z,19.63
2023-04-16T10:26:04.141Z,20.12
2023-04-16T10:28:35.251Z,20.30
2023-04-16T10:31:04.651Z,20.16
2023-04-16T10:33:34.964Z,20.07
2023-04-16T10:36:10.491Z,20.17
2023-04-16T10:38:40.422Z,20.00
2023-04-16T10:41:09.801Z,18.81
2023-04-16T10:43:42.156Z,18.52
2023-04-16T10:46:21.189Z,18.82
2023-04-16T10:48:50.956Z,18.87
2023-04-16T10:51:27.839Z,19.63
2023-04-16T10:53:56.614Z,20.30
2023-04-16T10:56:26.780Z,20.20
2023-04-16T10:58:56.862Z,20.22
2023-04-16T11:01:32.179Z,19.78
2023-04-16T11:04:04.731Z,19.68
2023-04-16T11:06:32.849Z,20.13
2023-04-16T11:09:00.565Z,19.62
2023-04-16T11:11:39.253Z,20.26
2023-04-16T11:14:09.849Z,20.84
2023-04-16T11:16:41.779Z,20.53
2023-04-16T11:19:16.303Z,20.20
2023-04-16T11:21:46.269Z,19.56
2023-04-16T11:24:14.028Z,18.92
2023-04-16T11:26:43.086Z,18.62
2023-04-16T11:29:15.547Z,19.48
2023-04-16T11:31:43.374Z,20.01
2023-04-16T11:34:11.402Z,20.66
2023-04-16T11:36:44.477Z,20.62
2023-04-16T11:39:12.471Z,20.95
2023-04-16T11:41:45.056Z,21.11
2023-04-16T11:44:20.064Z,20.38
2023-04-16T11:46:47.857Z,21.19
2023-04-16T11:49:17.334Z,21.72
2023-04-16T11:51:46.703Z,22.08
2023-04-16T11:54:21.022Z,21.93
2023-04-16T11:56:51.762Z,20.77
2023-04-16T11:59:22.835Z,19.89
2023-04-16T12:01:52.200Z,20.48
2023-04-16T12:04:22.266Z,20.95
2023-04-16T12:07:06.185Z,20.77
2023-04-16T12:09:36.089Z,20.35
2023-04-16T12:12:07.656Z,20.71
2023-04-16T12:14:35.585Z,21.50
2023-04-16T12:17:18.947Z,21.93
2023-04-16T12:19:49.742Z,22.08
2023-04-16T12:22:17.492Z,20.95
2023-04-16T12:24:45.177Z,20.43
2023-04-16T12:27:16.450Z,20.88
2023-04-16T12:29:44.126Z,21.03
2023-04-16T12:32:23.424Z,21.00
2023-04-16T12:34:51.733Z,20.41
2023-04-16T12:37:19.488Z,21.03
2023-04-16T12:39:48.126Z,21.50
2023-04-16T12:42:17.330Z,21.33
2023-04-16T12:44:45.003Z,22.09
2023-04-16T12:47:12.718Z,22.47
2023-04-16T12:49:40.611Z,22.88
2023-04-16T12:52:08.344Z,23.00
2023-04-16T12:54:36.086Z,21.23
2023-04-16T12:57:03.893Z,22.41
2023-04-16T12:59:32.977Z,22.51
2023-04-16T13:02:02.451Z,22.77
2023-04-16T13:04:30.278Z,22.08
2023-04-16T13:06:58.178Z,21.22
2023-04-16T13:09:27.043Z,22.42
2023-04-16T13:11:54.771Z,22.07
2023-04-16T13:14:24.383Z,22.19
2023-04-16T13:16:53.445Z,22.97
2023-04-16T13:19:21.220Z,23.48
2023-04-16T13:21:48.953Z,23.64
2023-04-16T13:24:16.767Z,22.01
2023-04-16T13:26:44.574Z,21.49
2023-04-16T13:29:12.715Z,22.04
2023-04-16T13:31:40.717Z,23.01
2023-04-16T13:34:09.825Z,23.41
2023-04-16T13:36:37.577Z,23.16
2023-04-16T13:39:10.695Z,23.20
2023-04-16T13:41:38.730Z,24.53
2023-04-16T13:44:06.761Z,23.72
2023-04-16T13:46:34.643Z,22.69
2023-04-16T13:49:02.430Z,22.29
2023-04-16T13:51:32.043Z,21.33
2023-04-16T13:53:59.775Z,21.30
2023-04-16T13:56:27.565Z,21.91
2023-04-16T13:58:55.434Z,23.06
2023-04-16T14:01:23.399Z,23.63
2023-04-16T14:03:51.389Z,23.50
2023-04-16T14:06:19.203Z,23.00
2023-04-16T14:08:48.281Z,23.17
2023-04-16T14:11:16.108Z,23.48
2023-04-16T14:13:43.829Z,24.27
2023-04-16T14:16:11.773Z,24.93
2023-04-16T14:18:42.367Z,23.52
2023-04-16T14:21:10.176Z,23.33
2023-04-16T14:23:37.906Z,23.46
2023-04-16T14:26:07.057Z,22.02
2023-04-16T14:28:35.491Z,21.35
2023-04-16T14:31:03.442Z,21.96
2023-04-16T14:33:32.380Z,22.24
2023-04-16T14:36:02.669Z,21.81
2023-04-16T14:38:31.407Z,22.13
2023-04-16T14:41:00.200Z,21.98
2023-04-16T14:43:29.396Z,21.83
2023-04-16T14:45:58.614Z,22.14
2023-04-16T14:48:26.448Z,23.39
2023-04-16T14:50:54.920Z,23.48
2023-04-16T14:53:24.112Z,23.91
2023-04-16T14:55:53.129Z,24.87
2023-04-16T14:58:21.843Z,24.55
2023-04-16T15:00:50.956Z,24.61
2023-04-16T15:03:18.870Z,23.99
2023-04-16T15:05:50.829Z,24.17
2023-04-16T15:08:18.608Z,23.97
2023-04-16T15:10:46.345Z,22.91
2023-04-16T15:13:14.130Z,23.28
2023-04-16T15:15:41.869Z,23.22
2023-04-16T15:18:11.188Z,22.61
2023-04-16T15:20:38.905Z,23.33
2023-04-16T15:23:06.684Z,23.34
2023-04-16T15:25:34.585Z,24.19
2023-04-16T15:28:02.749Z,24.17
2023-04-16T15:30:32.134Z,24.10
2023-04-16T15:33:00.015Z,23.98
2023-04-16T15:35:29.186Z,23.69
2023-04-16T15:37:56.896Z,23.23
2023-04-16T15:40:26.159Z,22.72
2023-04-16T15:42:53.955Z,21.87
2023-04-16T15:45:21.953Z,21.34
2023-04-16T15:47:51.334Z,21.46
2023-04-16T15:50:19.490Z,21.91
2023-04-16T15:52:48.771Z,21.34
2023-04-16T15:55:17.602Z,21.87
2023-04-16T15:57:45.523Z,21.83
2023-04-16T16:00:15.560Z,21.96
2023-04-16T16:02:44.489Z,21.61
2023-04-16T16:05:13.772Z,21.78
2023-04-16T16:07:41.739Z,21.69
2023-04-16T16:10:13.143Z,21.61
2023-04-16T16:12:41.263Z,21.20
2023-04-16T16:15:10.892Z,20.89
2023-04-16T16:17:38.779Z,20.95
2023-04-16T16:20:10.264Z,21.10
2023-04-16T16:22:39.115Z,21.50
2023-04-16T16:25:08.146Z,21.39
2023-04-16T16:27:37.294Z,20.91
2023-04-16T16:30:07.329Z,20.17
2023-04-16T16:32:35.121Z,20.20
2023-04-16T16:35:02.913Z,20.97
2023-04-16T16:37:30.738Z,21.47
2023-04-16T16:39:58.459Z,20.98
2023-04-16T16:42:26.655Z,21.52
2023-04-16T16:44:57.449Z,20.78
2023-04-16T16:47:25.448Z,21.08
2023-04-16T16:49:54.649Z,21.41
2023-04-16T16:52:24.645Z,21.49
2023-04-16T16:54:52.439Z,20.93
2023-04-16T16:57:20.492Z,20.79
2023-04-16T16:59:48.426Z,20.97
2023-04-16T17:02:17.672Z,20.91
2023-04-16T17:04:45.602Z,20.66
2023-04-16T17:07:13.576Z,21.38
2023-04-16T17:09:41.301Z,21.12
2023-04-16T17:12:09.246Z,21.09
2023-04-16T17:14:36.998Z,21.09
2023-04-16T17:17:04.728Z,20.92
2023-04-16T17:19:33.833Z,20.68
2023-04-16T17:22:01.643Z,20.29
2023-04-16T17:24:29.468Z,20.50
2023-04-16T17:26:58.439Z,20.69
2023-04-16T17:29:26.641Z,20.76
2023-04-16T17:31:54.763Z,20.57
2023-04-16T17:34:22.689Z,20.74
2023-04-16T17:36:51.758Z,20.73
2023-04-16T17:39:20.721Z,20.56
2023-04-16T17:41:54.128Z,20.30
2023-04-16T17:44:22.999Z,20.43
2023-04-16T17:46:50.830Z,20.12
2023-04-16T17:49:18.580Z,19.80
2023-04-16T17:51:46.377Z,20.00
2023-04-16T17:54:15.643Z,20.02
2023-04-16T17:56:43.352Z,20.27
2023-04-16T17:59:11.456Z,20.14
2023-04-16T18:01:39.375Z,20.03
2023-04-16T18:04:07.432Z,20.03
2023-04-16T18:06:35.396Z,20.06
2023-04-16T18:09:04.921Z,19.99
2023-04-16T18:11:34.212Z,20.15
2023-04-16T18:14:01.915Z,20.04
2023-04-16T18:16:29.662Z,19.96
2023-04-16T18:18:57.655Z,19.58
2023-04-16T18:21:25.858Z,19.76
2023-04-16T18:23:53.633Z,19.53
2023-04-16T18:26:22.951Z,19.73
2023-04-16T18:28:52.171Z,19.76
2023-04-16T18:31:21.265Z,19.64
2023-04-16T18:33:57.577Z,19.47
2023-04-16T18:36:26.711Z,19.42
2023-04-16T18:41:26.923Z,19.15
2023-04-16T18:43:56.022Z,19.28
2023-04-16T18:46:23.856Z,19.31
2023-04-16T18:48:51.756Z,19.18
2023-04-16T18:51:19.503Z,19.32
2023-04-16T18:53:47.215Z,19.29
2023-04-16T18:56:14.920Z,19.30
2023-04-16T18:58:43.182Z,19.21
2023-04-16T19:01:13.937Z,19.15
2023-04-16T19:03:41.756Z,19.12
2023-04-16T19:06:09.699Z,19.06
2023-04-16T19:08:37.404Z,19.00
2023-04-16T19:11:05.157Z,18.88
2023-04-16T19:13:32.904Z,18.80
2023-04-16T19:16:02.070Z,18.76
2023-04-16T19:18:31.330Z,18.79
2023-04-16T19:21:02.352Z,18.69
2023-04-16T19:23:30.351Z,18.65
2023-04-16T19:25:58.103Z,18.58
2023-04-16T19:28:26.265Z,18.02
2023-04-16T19:30:54.489Z,17.93
2023-04-16T19:33:22.219Z,17.87
2023-04-16T19:35:51.331Z,17.60
2023-04-16T19:38:19.040Z,17.50
2023-04-16T19:40:47.413Z,17.41
2023-04-16T19:43:15.592Z,17.52
2023-04-16T19:45:44.388Z,17.62
2023-04-16T19:48:12.343Z,17.53
2023-04-16T19:50:41.268Z,17.48
2023-04-16T19:53:10.739Z,17.65
2023-04-16T19:55:40.391Z,17.48
2023-04-16T19:58:08.266Z,17.01
2023-04-16T20:00:38.325Z,17.09
2023-04-16T20:03:06.466Z,16.69
2023-04-16T20:05:34.642Z,16.98
2023-04-16T20:08:02.384Z,16.98
2023-04-16T20:10:31.949Z,17.02
2023-04-16T20:12:59.736Z,16.94
2023-04-16T20:15:27.427Z,16.99
2023-04-16T20:17:56.055Z,16.95
2023-04-16T20:20:23.996Z,16.90
2023-04-16T20:22:51.788Z,16.88
2023-04-16T20:25:20.667Z,16.93
2023-04-16T20:27:49.790Z,16.80
2023-04-16T20:30:17.499Z,16.84
2023-04-16T20:32:45.291Z,16.91
2023-04-16T20:35:13.014Z,16.90
2023-04-16T20:37:42.297Z,17.00
2023-04-16T20:40:11.068Z,16.97
2023-04-16T20:42:38.868Z,16.86
2023-04-16T20:45:09.724Z,16.72
2023-04-16T20:47:37.449Z,16.62
2023-04-16T20:50:05.738Z,16.52
2023-04-16T20:52:33.518Z,16.36
2023-04-16T20:55:01.471Z,16.32
2023-04-16T20:57:29.655Z,16.48
2023-04-16T20:59:58.390Z,16.34
2023-04-16T21:02:28.219Z,16.49
2023-04-16T21:04:56.323Z,16.49
2023-04-16T21:07:24.064Z,16.60
2023-04-16T21:09:51.798Z,16.38
2023-04-16T21:12:19.539Z,16.16
2023-04-16T21:14:47.282Z,16.19
2023-04-16T21:17:14.965Z,16.08
2023-04-16T21:19:44.074Z,16.14
2023-04-16T21:22:11.770Z,16.18
2023-04-16T21:24:39.481Z,15.97
2023-04-16T21:27:07.128Z,15.80
2023-04-16T21:29:34.831Z,15.96
2023-04-16T21:32:02.495Z,16.18
2023-04-16T21:34:30.157Z,16.33
2023-04-16T21:36:59.322Z,16.28
2023-04-16T21:39:30.858Z,16.29
2023-04-16T21:41:58.653Z,16.30
2023-04-16T21:44:26.513Z,16.37
2023-04-16T21:46:54.300Z,16.54
2023-04-16T21:49:22.047Z,16.54
2023-04-16T21:51:50.153Z,16.48
2023-04-16T21:54:20.642Z,16.62
2023-04-16T21:56:48.346Z,16.59
2023-04-16T21:59:16.032Z,16.31
2023-04-16T22:01:43.886Z,16.16
2023-04-16T22:04:12.185Z,16.08
2023-04-16T22:06:40.395Z,16.16
2023-04-16T22:09:08.131Z,16.27
2023-04-16T22:11:38.329Z,16.36
2023-04-16T22:14:08.315Z,16.33
2023-04-16T22:16:36.295Z,16.37
2023-04-16T22:19:04.029Z,16.43
2023-04-16T22:21:32.360Z,16.38
2023-04-16T22:24:00.144Z,16.53
2023-04-16T22:26:27.864Z,16.48
2023-04-16T22:28:56.961Z,16.50
2023-04-16T22:31:24.762Z,16.45
2023-04-16T22:33:52.549Z,16.54
2023-04-16T22:36:21.031Z,16.55
2023-04-16T22:38:48.747Z,16.55
2023-04-16T22:41:16.469Z,16.44
2023-04-16T22:43:44.204Z,16.50
2023-04-16T22:46:13.422Z,16.28
2023-04-16T22:48:41.219Z,16.18
2023-04-16T22:51:10.061Z,16.47
2023-04-16T22:53:38.145Z,16.49
2023-04-16T22:56:06.372Z,16.78
2023-04-16T22:58:34.154Z,16.69
2023-04-16T23:01:02.022Z,16.60
2023-04-16T23:03:31.400Z,16.22
2023-04-16T23:05:59.260Z,16.21
2023-04-16T23:08:26.950Z,16.20
2023-04-16T23:10:54.697Z,16.39
2023-04-16T23:13:22.540Z,16.18
2023-04-16T23:15:50.366Z,16.08
2023-04-16T23:18:18.160Z,16.17
2023-04-16T23:20:47.249Z,16.50
2023-04-16T23:23:14.976Z,16.49
2023-04-16T23:25:42.804Z,16.40
2023-04-16T23:28:10.569Z,16.21
2023-04-16T23:30:38.380Z,16.16
2023-04-16T23:33:06.125Z,16.19
2023-04-16T23:35:33.906Z,16.10
2023-04-16T23:38:03.373Z,16.04
2023-04-16T23:40:31.258Z,15.89
2023-04-16T23:42:58.952Z,16.04
2023-04-16T23:45:26.759Z,16.07
2023-04-16T23:47:54.521Z,15.82
2023-04-16T23:50:22.289Z,15.65
2023-04-16T23:52:49.997Z,15.62
2023-04-16T23:55:19.050Z,15.93
2023-04-16T23:57:46.795Z,15.79
